Time;durP1;ratioP1;P1;durP2;ratioP2;P2;SDS_P1;SDS_P2;PMS_P1;PMS_P2;Temp;Humidity;BMP_temperature;BMP_pressure;BME280_temperature;BME280_humidity;BME280_pressure;Samples;Min_cycle;Max_cycle;Signal;HPM_P1;HPM_P2
2023/09/17 00:01:20;;;;;;;9.60;6.90;;;;;;;-128.00;-1.00;-1.00;94826;318;2973136;-31
2023/09/17 00:03:46;;;;;;;8.50;6.40;;;;;;;-128.00;-1.00;-1.00;100822;318;1003370;-31
2023/09/17 00:06:11;;;;;;;10.90;7.30;;;;;;;-128.00;-1.00;-1.00;100814;318;1004034;-34
2023/09/17 00:08:37;;;;;;;15.60;7.80;;;;;;;-128.00;-1.00;-1.00;100716;317;1003986;-36
2023/09/17 00:11:03;;;;;;;9.10;8.10;;;;;;;-128.00;-1.00;-1.00;100698;320;1003615;-36
2023/09/17 00:13:29;;;;;;;15.30;9.80;;;;;;;-128.00;-1.00;-1.00;100839;318;1004601;-30
2023/09/17 00:15:55;;;;;;;14.80;7.40;;;;;;;-128.00;-1.00;-1.00;100703;318;1004940;-35
2023/09/17 00:18:21;;;;;;;15.40;8.80;;;;;;;-128.00;-1.00;-1.00;100670;318;1003081;-34
2023/09/17 00:20:47;;;;;;;7.90;6.50;;;;;;;-128.00;-1.00;-1.00;100731;318;1003291;-34
2023/09/17 00:23:12;;;;;;;19.30;8.50;;;;;;;-128.00;-1.00;-1.00;100678;318;1003147;-34
2023/09/17 00:25:40;;;;;;;10.40;7.80;;;;;;;-128.00;-1.00;-1.00;100832;318;1003627;-34
2023/09/17 00:28:06;;;;;;;13.50;8.50;;;;;;;-128.00;-1.00;-1.00;100933;318;1003457;-34
2023/09/17 00:30:31;;;;;;;17.40;10.90;;;;;;;-128.00;-1.00;-1.00;100764;318;1004104;-30
2023/09/17 00:32:57;;;;;;;13.00;7.90;;;;;;;-128.00;-1.00;-1.00;100686;320;1003336;-34
2023/09/17 00:35:22;;;;;;;10.50;8.50;;;;;;;-128.00;-1.00;-1.00;100705;320;1003294;-30
2023/09/17 01:18:24;;;;;;;12.10;8.80;;;;;;;-99.37;19.20;19902.11;101428;316;1578412;-32
2023/09/17 01:21:22;;;;;;;15.20;11.40;;;;;;;-128.00;-1.00;-1.00;90543;317;3003395;-31
2023/09/17 01:23:53;;;;;;;18.20;12.80;;;;;;;-128.00;-1.00;-1.00;19095;317;7504815;-32
2023/09/17 01:26:25;;;;;;;12.70;9.90;;;;;;;-128.00;-1.00;-1.00;19074;321;7506047;-31
2023/09/17 01:28:53;;;;;;;8.80;7.30;;;;;;;-128.00;-1.00;-1.00;19062;315;7504589;-31
2023/09/17 01:31:20;;;;;;;7.90;7.20;;;;;;;-128.00;-1.00;-1.00;19063;321;7507145;-31
2023/09/17 01:33:47;;;;;;;11.40;8.20;;;;;;;-128.00;-1.00;-1.00;19065;321;7505421;-35
2023/09/17 01:36:16;;;;;;;12.50;8.80;;;;;;;-128.00;-1.00;-1.00;19045;321;7505440;-32
2023/09/17 01:38:48;;;;;;;15.70;9.50;;;;;;;-128.00;-1.00;-1.00;19083;320;7504736;-32
2023/09/17 01:41:13;;;;;;;12.80;8.40;;;;;;;-128.00;-1.00;-1.00;19068;316;7504693;-31
2023/09/17 01:43:40;;;;;;;11.40;8.50;;;;;;;-128.00;-1.00;-1.00;19073;316;7504859;-31
2023/09/17 01:46:06;;;;;;;12.90;8.70;;;;;;;-128.00;-1.00;-1.00;19063;316;7505341;-32
2023/09/17 01:48:32;;;;;;;14.60;1648.10;;;;;;;-128.00;-1.00;-1.00;19024;317;7505529;-32
2023/09/17 01:50:59;;;;;;;16.10;10.50;;;;;;;-128.00;-1.00;-1.00;19090;316;7505320;-31
2023/09/17 01:53:25;;;;;;;14.20;9.50;;;;;;;-128.00;-1.00;-1.00;19057;316;7505369;-32
2023/09/17 01:55:52;;;;;;;15.80;10.40;;;;;;;-128.00;-1.00;-1.00;19465;317;7504892;-36
2023/09/17 01:58:21;;;;;;;12.70;9.30;;;;;;;-128.00;-1.00;-1.00;19082;320;7504884;-32
2023/09/17 02:00:49;;;;;;;14.00;9.20;;;;;;;-128.00;-1.00;-1.00;19069;320;7504823;-36
2023/09/17 02:03:14;;;;;;;9.60;8.60;;;;;;;-128.00;-1.00;-1.00;19049;321;7504323;-36
2023/09/17 02:05:40;;;;;;;12.20;9.70;;;;;;;-128.00;-1.00;-1.00;19074;320;7506329;-31
2023/09/17 02:08:06;;;;;;;10.40;9.20;;;;;;;-128.00;-1.00;-1.00;19089;315;7505302;-31
2023/09/17 02:10:32;;;;;;;17.90;9.30;;;;;;;-128.00;-1.00;-1.00;19056;315;7506342;-32
2023/09/17 02:12:58;;;;;;;10.70;8.30;;;;;;;-128.00;-1.00;-1.00;19056;320;7506029;-32
2023/09/17 02:15:24;;;;;;;12.10;9.50;;;;;;;-128.00;-1.00;-1.00;19060;320;7505222;-31
2023/09/17 02:17:50;;;;;;;10.40;8.60;;;;;;;-128.00;-1.00;-1.00;19077;315;7506239;-31
2023/09/17 02:20:16;;;;;;;16.90;10.40;;;;;;;-128.00;-1.00;-1.00;19060;321;7504674;-35
2023/09/17 02:22:42;;;;;;;13.60;9.40;;;;;;;-128.00;-1.00;-1.00;19084;316;7506528;-31
2023/09/17 02:25:09;;;;;;;28.70;11.40;;;;;;;-128.00;-1.00;-1.00;19477;321;7504756;-35
2023/09/17 02:27:34;;;;;;;11.20;8.60;;;;;;;-128.00;-1.00;-1.00;19074;316;7505066;-35
2023/09/17 02:30:00;;;;;;;15.00;9.50;;;;;;;-128.00;-1.00;-1.00;19081;317;7505050;-31
2023/09/17 02:32:26;;;;;;;11.70;9.20;;;;;;;-128.00;-1.00;-1.00;19080;316;7504570;-35
2023/09/17 02:34:52;;;;;;;20.30;9.30;;;;;;;-128.00;-1.00;-1.00;19077;316;7505467;-31
2023/09/17 02:37:18;;;;;;;19.10;10.70;;;;;;;-128.00;-1.00;-1.00;19486;321;7505161;-32
2023/09/17 02:39:44;;;;;;;10.50;9.20;;;;;;;-128.00;-1.00;-1.00;19071;316;7505274;-35
2023/09/17 02:42:10;;;;;;;12.60;9.00;;;;;;;-128.00;-1.00;-1.00;19057;317;7504640;-31
2023/09/17 02:44:36;;;;;;;8.10;7.10;;;;;;;-128.00;-1.00;-1.00;19067;316;7504418;-35
2023/09/17 02:47:02;;;;;;;11.60;7.10;;;;;;;-128.00;-1.00;-1.00;19087;316;7504690;-30
2023/09/17 02:49:28;;;;;;;13.70;9.10;;;;;;;-128.00;-1.00;-1.00;19077;316;7504716;-35
2023/09/17 02:51:54;;;;;;;16.00;10.30;;;;;;;-128.00;-1.00;-1.00;19074;321;7504930;-32
2023/09/17 02:54:20;;;;;;;15.50;9.70;;;;;;;-128.00;-1.00;-1.00;19484;316;7505148;-32
2023/09/17 02:56:46;;;;;;;17.70;9.90;;;;;;;-128.00;-1.00;-1.00;19510;315;7504611;-36
2023/09/17 02:59:13;;;;;;;20.10;9.90;;;;;;;-128.00;-1.00;-1.00;19035;319;7505438;-36
2023/09/17 03:01:39;;;;;;;16.20;8.70;;;;;;;-128.00;-1.00;-1.00;19054;320;7505232;-36
2023/09/17 03:04:06;;;;;;;12.10;9.00;;;;;;;-128.00;-1.00;-1.00;19089;315;7505108;-32
2023/09/17 03:06:32;;;;;;;11.60;8.00;;;;;;;-128.00;-1.00;-1.00;19032;321;7505084;-31
2023/09/17 03:08:58;;;;;;;10.60;9.30;;;;;;;-128.00;-1.00;-1.00;19064;321;7504483;-32
2023/09/17 03:11:26;;;;;;;14.10;9.60;;;;;;;-128.00;-1.00;-1.00;19504;321;7504729;-35
2023/09/17 03:13:52;;;;;;;9.90;7.60;;;;;;;-128.00;-1.00;-1.00;19054;321;7505148;-35
2023/09/17 03:16:18;;;;;;;11.10;8.80;;;;;;;-128.00;-1.00;-1.00;19067;321;7505276;-32
2023/09/17 03:18:45;;;;;;;11.80;8.40;;;;;;;-128.00;-1.00;-1.00;19074;316;7506022;-36
2023/09/17 03:21:11;;;;;;;9.40;8.40;;;;;;;-128.00;-1.00;-1.00;19086;316;7504966;-30
2023/09/17 03:23:37;;;;;;;8.50;7.70;;;;;;;-128.00;-1.00;-1.00;19065;317;7505539;-31
2023/09/17 03:26:03;;;;;;;9.30;7.70;;;;;;;-128.00;-1.00;-1.00;19069;317;7506032;-35
2023/09/17 03:28:32;;;;;;;18.70;10.00;;;;;;;-128.00;-1.00;-1.00;19081;316;7505238;-34
2023/09/17 03:30:58;;;;;;;9.10;8.10;;;;;;;-128.00;-1.00;-1.00;19058;316;7505055;-31
2023/09/17 03:33:24;;;;;;;10.50;8.00;;;;;;;-128.00;-1.00;-1.00;19068;317;7504560;-33
2023/09/17 03:35:51;;;;;;;6.60;5.90;;;;;;;-128.00;-1.00;-1.00;19063;321;7504955;-35
2023/09/17 03:38:17;;;;;;;8.70;7.70;;;;;;;-128.00;-1.00;-1.00;19065;320;7505211;-35
2023/09/17 03:40:44;;;;;;;15.10;7.60;;;;;;;-128.00;-1.00;-1.00;19049;317;7504761;-32
2023/09/17 03:43:10;;;;;;;9.90;7.00;;;;;;;-128.00;-1.00;-1.00;19055;317;7504888;-35
2023/09/17 03:45:36;;;;;;;9.00;7.70;;;;;;;-128.00;-1.00;-1.00;19488;316;7505516;-32
2023/09/17 03:48:04;;;;;;;10.50;7.40;;;;;;;-128.00;-1.00;-1.00;19484;315;7504859;-38
2023/09/17 03:50:30;;;;;;;6.20;5.50;;;;;;;-128.00;-1.00;-1.00;19066;315;7504885;-35
2023/09/17 03:52:57;;;;;;;12.90;8.20;;;;;;;-128.00;-1.00;-1.00;19072;316;7506003;-35
2023/09/17 03:55:23;;;;;;;15.70;7.30;;;;;;;-128.00;-1.00;-1.00;19064;317;7506992;-32
2023/09/17 03:57:49;;;;;;;5.90;5.40;;;;;;;-128.00;-1.00;-1.00;19067;321;7506163;-35
2023/09/17 04:00:16;;;;;;;8.30;6.40;;;;;;;-128.00;-1.00;-1.00;19064;315;7504994;-31
2023/09/17 04:02:42;;;;;;;6.60;4.80;;;;;;;-128.00;-1.00;-1.00;19072;320;7504391;-31
2023/09/17 04:05:09;;;;;;;6.90;4.60;;;;;;;-128.00;-1.00;-1.00;19060;316;7505261;-35
2023/09/17 04:07:35;;;;;;;5.20;4.70;;;;;;;-128.00;-1.00;-1.00;19058;321;7505034;-31
2023/09/17 04:10:02;;;;;;;5.10;4.60;;;;;;;-128.00;-1.00;-1.00;19064;316;7506243;-35
2023/09/17 04:12:29;;;;;;;5.70;4.10;;;;;;;-128.00;-1.00;-1.00;19032;316;7504772;-31
2023/09/17 04:14:55;;;;;;;7.30;5.90;;;;;;;-128.00;-1.00;-1.00;19085;315;7504765;-34
2023/09/17 04:17:20;;;;;;;6.90;4.80;;;;;;;-128.00;-1.00;-1.00;19048;321;7506217;-32
2023/09/17 04:19:47;;;;;;;6.40;5.50;;;;;;;-128.00;-1.00;-1.00;19071;316;7504889;-35
2023/09/17 04:22:13;;;;;;;6.00;4.60;;;;;;;-128.00;-1.00;-1.00;19052;317;7505258;-32
2023/09/17 04:24:39;;;;;;;9.50;6.50;;;;;;;-128.00;-1.00;-1.00;19474;316;7505080;-35
2023/09/17 04:27:05;;;;;;;12.70;5.80;;;;;;;-128.00;-1.00;-1.00;19485;316;7506107;-35
2023/09/17 04:29:32;;;;;;;6.00;4.70;;;;;;;-128.00;-1.00;-1.00;19484;315;7504892;-33
2023/09/17 04:31:58;;;;;;;6.20;5.50;;;;;;;-128.00;-1.00;-1.00;19477;316;7506694;-34
2023/09/17 04:34:24;;;;;;;5.70;5.00;;;;;;;-128.00;-1.00;-1.00;19482;316;7506624;-35
2023/09/17 04:36:50;;;;;;;6.60;5.80;;;;;;;-128.00;-1.00;-1.00;19493;321;7505162;-34
2023/09/17 04:39:17;;;;;;;7.60;6.40;;;;;;;-128.00;-1.00;-1.00;19470;317;7506470;-33
2023/09/17 04:41:44;;;;;;;7.40;6.30;;;;;;;-128.00;-1.00;-1.00;19477;315;7504704;-37
2023/09/17 04:44:10;;;;;;;8.70;5.20;;;;;;;-128.00;-1.00;-1.00;19053;315;7506228;-35
2023/09/17 04:46:40;;;;;;;9.00;6.60;;;;;;;-128.00;-1.00;-1.00;19087;316;7505662;-31
2023/09/17 04:49:06;;;;;;;6.30;5.70;;;;;;;-128.00;-1.00;-1.00;19064;316;7507247;-31
2023/09/17 04:51:34;;;;;;;9.30;6.30;;;;;;;-128.00;-1.00;-1.00;19056;321;7505138;-31
2023/09/17 04:54:00;;;;;;;12.90;5.20;;;;;;;-128.00;-1.00;-1.00;19067;321;7505464;-32
2023/09/17 04:56:25;;;;;;;8.20;5.80;;;;;;;-128.00;-1.00;-1.00;19065;317;7504653;-31
2023/09/17 04:58:51;;;;;;;10.00;6.90;;;;;;;-128.00;-1.00;-1.00;19497;317;7506928;-33
2023/09/17 05:01:18;;;;;;;5.90;5.30;;;;;;;-128.00;-1.00;-1.00;19072;316;7505516;-35
2023/09/17 05:03:46;;;;;;;7.70;6.10;;;;;;;-128.00;-1.00;-1.00;19518;316;7504904;-35
2023/09/17 05:06:12;;;;;;;6.10;5.60;;;;;;;-128.00;-1.00;-1.00;19069;316;7506019;-31
2023/09/17 05:08:38;;;;;;;7.10;5.10;;;;;;;-128.00;-1.00;-1.00;19066;316;7504564;-35
2023/09/17 05:11:05;;;;;;;6.30;5.60;;;;;;;-128.00;-1.00;-1.00;19082;321;7506416;-36
2023/09/17 05:13:31;;;;;;;16.90;5.70;;;;;;;-128.00;-1.00;-1.00;19070;316;7505492;-31
2023/09/17 05:15:57;;;;;;;5.50;4.80;;;;;;;-128.00;-1.00;-1.00;19070;317;7504937;-35
2023/09/17 05:18:23;;;;;;;9.20;5.30;;;;;;;-128.00;-1.00;-1.00;19066;321;7504967;-35
2023/09/17 05:20:49;;;;;;;5.20;4.40;;;;;;;-128.00;-1.00;-1.00;19074;316;7504966;-35
2023/09/17 05:23:16;;;;;;;8.60;5.50;;;;;;;-128.00;-1.00;-1.00;19055;320;7506723;-37
2023/09/17 05:25:41;;;;;;;6.70;5.40;;;;;;;-128.00;-1.00;-1.00;19068;317;7504766;-35
2023/09/17 05:28:07;;;;;;;6.00;5.10;;;;;;;-128.00;-1.00;-1.00;19082;317;7506064;-36
2023/09/17 05:30:34;;;;;;;8.80;5.70;;;;;;;-128.00;-1.00;-1.00;19072;316;7505121;-36
2023/09/17 05:33:00;;;;;;;6.00;3.90;;;;;;;-128.00;-1.00;-1.00;19062;316;7505633;-35
2023/09/17 05:35:26;;;;;;;6.30;4.90;;;;;;;-128.00;-1.00;-1.00;19065;321;7504595;-36
2023/09/17 05:37:51;;;;;;;4.50;4.10;;;;;;;-128.00;-1.00;-1.00;19082;317;7505390;-36
2023/09/17 05:40:17;;;;;;;3.90;3.10;;;;;;;-128.00;-1.00;-1.00;19063;316;7504936;-35
2023/09/17 05:42:43;;;;;;;6.40;5.00;;;;;;;-128.00;-1.00;-1.00;19072;316;7504980;-36
2023/09/17 05:45:09;;;;;;;9.20;5.20;;;;;;;-128.00;-1.00;-1.00;19047;317;7505144;-33
2023/09/17 05:47:35;;;;;;;5.70;4.00;;;;;;;-128.00;-1.00;-1.00;19084;321;7504872;-36
2023/09/17 05:50:01;;;;;;;4.50;3.50;;;;;;;-128.00;-1.00;-1.00;19069;316;7506073;-36
2023/09/17 05:52:26;;;;;;;19.10;3.70;;;;;;;-128.00;-1.00;-1.00;19069;316;7504651;-36
2023/09/17 05:54:52;;;;;;;6.90;5.30;;;;;;;-128.00;-1.00;-1.00;19491;321;7504935;-32
2023/09/17 05:57:19;;;;;;;7.10;4.30;;;;;;;-128.00;-1.00;-1.00;19484;316;7504821;-36
2023/09/17 05:59:45;;;;;;;5.10;4.10;;;;;;;-128.00;-1.00;-1.00;19494;316;7505606;-32
2023/09/17 06:02:11;;;;;;;7.90;4.30;;;;;;;-128.00;-1.00;-1.00;19476;315;7506149;-36
2023/09/17 06:04:37;;;;;;;7.40;5.10;;;;;;;-128.00;-1.00;-1.00;19503;316;7504404;-32
2023/09/17 06:07:04;;;;;;;10.00;5.80;;;;;;;-128.00;-1.00;-1.00;19066;316;7504806;-36
2023/09/17 06:09:31;;;;;;;4.60;4.20;;;;;;;-128.00;-1.00;-1.00;19492;321;7505889;-36
2023/09/17 06:11:57;;;;;;;4.80;3.30;;;;;;;-128.00;-1.00;-1.00;19071;321;7507538;-32
2023/09/17 06:14:23;;;;;;;5.70;3.60;;;;;;;-128.00;-1.00;-1.00;19073;316;7504641;-33
2023/09/17 06:16:49;;;;;;;6.10;4.30;;;;;;;-128.00;-1.00;-1.00;19041;316;7505131;-35
2023/09/17 06:19:15;;;;;;;8.10;3.50;;;;;;;-128.00;-1.00;-1.00;19506;321;7504704;-36
2023/09/17 06:21:41;;;;;;;5.30;4.00;;;;;;;-128.00;-1.00;-1.00;19505;316;7505030;-32
2023/09/17 06:24:07;;;;;;;3.10;2.80;;;;;;;-128.00;-1.00;-1.00;19079;316;7504503;-32
2023/09/17 06:26:35;;;;;;;4.80;3.80;;;;;;;-128.00;-1.00;-1.00;19061;316;7506522;-37
2023/09/17 06:29:00;;;;;;;6.00;3.20;;;;;;;-128.00;-1.00;-1.00;19069;321;7504614;-33
2023/09/17 06:31:26;;;;;;;16.90;3.00;;;;;;;-128.00;-1.00;-1.00;19072;321;7505245;-37
2023/09/17 06:33:53;;;;;;;3.30;2.80;;;;;;;-128.00;-1.00;-1.00;19082;321;7504512;-37
2023/09/17 06:36:19;;;;;;;2.10;1.90;;;;;;;-128.00;-1.00;-1.00;19070;316;7504975;-35
2023/09/17 06:38:46;;;;;;;3.10;2.70;;;;;;;-128.00;-1.00;-1.00;19060;316;7505350;-36
2023/09/17 06:41:12;;;;;;;3.10;2.80;;;;;;;-128.00;-1.00;-1.00;19074;320;7504987;-35
2023/09/17 06:43:39;;;;;;;6.20;2.70;;;;;;;-128.00;-1.00;-1.00;19056;321;7504707;-35
2023/09/17 06:46:05;;;;;;;4.20;3.20;;;;;;;-128.00;-1.00;-1.00;19063;316;7504814;-36
2023/09/17 06:48:31;;;;;;;5.40;4.00;;;;;;;-128.00;-1.00;-1.00;19057;317;7505560;-32
2023/09/17 06:50:57;;;;;;;2.70;1.90;;;;;;;-128.00;-1.00;-1.00;19068;316;7505483;-36
2023/09/17 06:53:23;;;;;;;4.90;3.60;;;;;;;-128.00;-1.00;-1.00;19069;316;7504879;-31
2023/09/17 06:55:50;;;;;;;4.80;2.60;;;;;;;-128.00;-1.00;-1.00;19056;316;7504984;-31
2023/09/17 06:58:16;;;;;;;2.40;2.20;;;;;;;-128.00;-1.00;-1.00;19054;321;7504410;-31
2023/09/17 07:00:43;;;;;;;4.50;2.60;;;;;;;-128.00;-1.00;-1.00;19059;321;7505222;-35
2023/09/17 07:03:09;;;;;;;3.10;2.80;;;;;;;-128.00;-1.00;-1.00;19056;320;7504568;-36
2023/09/17 07:05:34;;;;;;;3.10;2.80;;;;;;;-128.00;-1.00;-1.00;19080;315;7504682;-33
2023/09/17 07:08:01;;;;;;;5.20;3.70;;;;;;;-128.00;-1.00;-1.00;19462;321;7504862;-33
2023/09/17 07:10:27;;;;;;;3.30;2.80;;;;;;;-128.00;-1.00;-1.00;19478;316;7504610;-37
2023/09/17 07:12:53;;;;;;;7.10;3.00;;;;;;;-128.00;-1.00;-1.00;19505;320;7504991;-36
2023/09/17 07:15:20;;;;;;;7.50;3.00;;;;;;;-128.00;-1.00;-1.00;19483;317;7505454;-33
2023/09/17 07:17:46;;;;;;;1.80;1.60;;;;;;;-128.00;-1.00;-1.00;19062;316;7506230;-36
2023/09/17 07:20:13;;;;;;;1.80;1.70;;;;;;;-128.00;-1.00;-1.00;19062;316;7504971;-32
2023/09/17 07:22:40;;;;;;;3.30;2.60;;;;;;;-128.00;-1.00;-1.00;19075;316;7505101;-36
2023/09/17 07:25:06;;;;;;;3.90;2.30;;;;;;;-128.00;-1.00;-1.00;19060;317;7505055;-31
2023/09/17 07:27:32;;;;;;;2.70;2.20;;;;;;;-128.00;-1.00;-1.00;19057;316;7504701;-36
2023/09/17 07:29:57;;;;;;;4.00;2.90;;;;;;;-128.00;-1.00;-1.00;19070;320;7506067;-32
2023/09/17 07:32:30;;;;;;;2.60;2.30;;;;;;;-128.00;-1.00;-1.00;19069;316;7505203;-35
2023/09/17 07:34:55;;;;;;;4.10;2.40;;;;;;;-128.00;-1.00;-1.00;19065;316;7506524;-32
2023/09/17 07:37:22;;;;;;;2.00;1.90;;;;;;;-128.00;-1.00;-1.00;19069;316;7505044;-32
2023/09/17 07:39:58;;;;;;;2.40;1.80;;;;;;;-128.00;-1.00;-1.00;19066;320;7504616;-36
2023/09/17 07:42:24;;;;;;;3.10;2.10;;;;;;;-128.00;-1.00;-1.00;19072;317;7506290;-32
2023/09/17 07:44:50;;;;;;;2.50;2.20;;;;;;;-128.00;-1.00;-1.00;19482;321;7504695;-35
2023/09/17 07:47:17;;;;;;;3.00;2.60;;;;;;;-128.00;-1.00;-1.00;19492;315;7505225;-36
2023/09/17 07:49:43;;;;;;;2.90;2.60;;;;;;;-128.00;-1.00;-1.00;19071;315;7505212;-32
2023/09/17 07:52:08;;;;;;;3.10;2.20;;;;;;;-128.00;-1.00;-1.00;19071;317;7504814;-33
2023/09/17 07:54:37;;;;;;;2.40;2.20;;;;;;;-128.00;-1.00;-1.00;19068;316;7504819;-32
2023/09/17 07:57:04;;;;;;;1.80;1.40;;;;;;;-128.00;-1.00;-1.00;19072;316;7504936;-32
2023/09/17 07:59:30;;;;;;;2.50;2.20;;;;;;;-128.00;-1.00;-1.00;19096;315;7505235;-36
2023/09/17 08:01:57;;;;;;;15.20;9.70;;;;;;;-128.00;-1.00;-1.00;19072;315;7504603;-32
2023/09/17 08:04:25;;;;;;;80.40;45.70;;;;;;;-128.00;-1.00;-1.00;19059;320;7504985;-36
2023/09/17 08:06:51;;;;;;;2.40;2.20;;;;;;;-128.00;-1.00;-1.00;19078;316;7505261;-32
2023/09/17 08:09:17;;;;;;;2.60;2.40;;;;;;;-128.00;-1.00;-1.00;19056;315;7504692;-36
2023/09/17 08:11:43;;;;;;;3.80;3.40;;;;;;;-128.00;-1.00;-1.00;19069;316;7507039;-31
2023/09/17 08:14:12;;;;;;;4.30;2.40;;;;;;;-128.00;-1.00;-1.00;19061;316;7505135;-33
2023/09/17 08:16:37;;;;;;;3.60;3.20;;;;;;;-128.00;-1.00;-1.00;19071;321;7504928;-32
2023/09/17 08:19:04;;;;;;;5.20;4.70;;;;;;;-128.00;-1.00;-1.00;19077;316;7505001;-36
2023/09/17 08:21:30;;;;;;;4.20;3.40;;;;;;;-128.00;-1.00;-1.00;19056;316;7505165;-36
2023/09/17 08:23:56;;;;;;;2.10;1.70;;;;;;;-128.00;-1.00;-1.00;19074;316;7504615;-32
2023/09/17 08:26:22;;;;;;;2.10;1.90;;;;;;;-128.00;-1.00;-1.00;19043;316;7506656;-32
2023/09/17 08:28:49;;;;;;;2.10;1.70;;;;;;;-128.00;-1.00;-1.00;19060;315;7505151;-32
2023/09/17 08:31:16;;;;;;;2.50;1.90;;;;;;;-128.00;-1.00;-1.00;19056;315;7505372;-33
2023/09/17 08:33:45;;;;;;;2.50;2.30;;;;;;;-128.00;-1.00;-1.00;19066;315;7505140;-36
2023/09/17 08:36:11;;;;;;;8.90;2.10;;;;;;;-128.00;-1.00;-1.00;19066;316;7505326;-36
2023/09/17 08:38:37;;;;;;;3.60;2.80;;;;;;;-128.00;-1.00;-1.00;19049;319;7504730;-33
2023/09/17 08:41:03;;;;;;;3.40;2.50;;;;;;;-128.00;-1.00;-1.00;19062;320;7505251;-36
2023/09/17 08:43:29;;;;;;;4.60;2.00;;;;;;;-128.00;-1.00;-1.00;19486;316;7505407;-36
2023/09/17 08:45:55;;;;;;;7.80;2.20;;;;;;;-128.00;-1.00;-1.00;19474;317;7505805;-36
2023/09/17 08:48:22;;;;;;;5.70;2.20;;;;;;;-128.00;-1.00;-1.00;19476;321;7505306;-33
2023/09/17 08:50:49;;;;;;;2.80;2.60;;;;;;;-128.00;-1.00;-1.00;19040;317;7504951;-35
2023/09/17 08:53:18;;;;;;;2.20;1.60;;;;;;;-128.00;-1.00;-1.00;19053;321;7505634;-36
2023/09/17 08:55:45;;;;;;;1.70;1.60;;;;;;;-128.00;-1.00;-1.00;19052;316;7507299;-36
2023/09/17 08:58:15;;;;;;;2.30;1.30;;;;;;;-128.00;-1.00;-1.00;19497;316;7505341;-36
2023/09/17 09:00:44;;;;;;;2.30;1.60;;;;;;;-128.00;-1.00;-1.00;19078;316;7504431;-33
2023/09/17 09:03:10;;;;;;;1.00;1.00;;;;;;;-128.00;-1.00;-1.00;19070;316;7504345;-36
2023/09/17 09:05:37;;;;;;;2.40;2.00;;;;;;;-128.00;-1.00;-1.00;19060;316;7504504;-36
2023/09/17 09:08:04;;;;;;;3.30;2.10;;;;;;;-128.00;-1.00;-1.00;19051;316;7505499;-33
2023/09/17 09:10:30;;;;;;;7.70;1.40;;;;;;;-128.00;-1.00;-1.00;19081;321;7505021;-33
2023/09/17 09:12:56;;;;;;;2.90;1.20;;;;;;;-128.00;-1.00;-1.00;19488;316;7505340;-36
2023/09/17 09:15:22;;;;;;;3.40;1.80;;;;;;;-128.00;-1.00;-1.00;19478;316;7504894;-33
2023/09/17 09:17:49;;;;;;;1.60;1.40;;;;;;;-128.00;-1.00;-1.00;19471;316;7504928;-36
2023/09/17 09:20:16;;;;;;;2.60;2.00;;;;;;;-128.00;-1.00;-1.00;19519;317;7504985;-36
2023/09/17 09:22:43;;;;;;;6.40;1.50;;;;;;;-128.00;-1.00;-1.00;18624;320;7505052;-36
2023/09/17 09:25:10;;;;;;;1.70;1.50;;;;;;;-128.00;-1.00;-1.00;19350;321;7505592;-36
2023/09/17 09:27:37;;;;;;;2.00;1.40;;;;;;;-128.00;-1.00;-1.00;19565;321;7506374;-36
2023/09/17 09:30:06;;;;;;;2.60;1.80;;;;;;;-128.00;-1.00;-1.00;19077;316;7506614;-33
2023/09/17 09:32:32;;;;;;;2.50;1.60;;;;;;;-128.00;-1.00;-1.00;19061;316;7504771;-33
2023/09/17 09:34:58;;;;;;;1.90;1.60;;;;;;;-128.00;-1.00;-1.00;19049;316;7504557;-33
2023/09/17 09:37:24;;;;;;;1.80;1.70;;;;;;;-128.00;-1.00;-1.00;44536;316;7504354;-33
2023/09/17 09:39:49;;;;;;;1.80;1.40;;;;;;;-128.00;-1.00;-1.00;101051;316;1003417;-36
2023/09/17 09:42:15;;;;;;;2.30;1.10;;;;;;;-128.00;-1.00;-1.00;101094;315;1004035;-35
2023/09/17 09:44:41;;;;;;;1.90;1.40;;;;;;;-128.00;-1.00;-1.00;101001;316;1002602;-37
2023/09/17 09:47:07;;;;;;;2.40;1.40;;;;;;;-128.00;-1.00;-1.00;101008;316;1003848;-37
2023/09/17 09:49:45;;;;;;;3.10;1.40;;;;;;;-128.00;-1.00;-1.00;26729;316;7506131;-36
2023/09/17 09:52:11;;;;;;;3.10;1.40;;;;;;;-128.00;-1.00;-1.00;21661;317;7504620;-37
2023/09/17 09:54:42;;;;;;;2.90;1.30;;;;;;;-128.00;-1.00;-1.00;32829;316;7504908;-37
2023/09/17 09:57:12;;;;;;;2.90;1.30;;;;;;;-128.00;-1.00;-1.00;20957;320;7505114;-33
2023/09/17 09:59:37;;;;;;;3.20;1.20;;;;;;;-128.00;-1.00;-1.00;94039;316;7505095;-32
2023/09/17 10:02:04;;;;;;;1.90;1.60;;;;;;;-128.00;-1.00;-1.00;94700;316;3002836;-35
2023/09/17 10:04:30;;;;;;;4.10;3.20;;;;;;;-128.00;-1.00;-1.00;100991;316;1004314;-32
2023/09/17 10:06:57;;;;;;;1.30;1.20;;;;;;;-128.00;-1.00;-1.00;101026;316;1003303;-32
2023/09/17 10:09:25;;;;;;;1.60;1.10;;;;;;;-128.00;-1.00;-1.00;100991;317;1003262;-35
2023/09/17 10:11:52;;;;;;;1.60;1.10;;;;;;;-128.00;-1.00;-1.00;101070;316;1003093;-35
2023/09/17 10:14:19;;;;;;;1.40;1.20;;;;;;;-128.00;-1.00;-1.00;101044;316;1004470;-34
2023/09/17 10:16:45;;;;;;;1.90;1.50;;;;;;;-128.00;-1.00;-1.00;101033;316;1002902;-37
2023/09/17 10:19:11;;;;;;;1.80;1.60;;;;;;;-128.00;-1.00;-1.00;101051;316;1003951;-33
2023/09/17 10:21:38;;;;;;;2.50;1.60;;;;;;;-128.00;-1.00;-1.00;101060;316;1002896;-31
2023/09/17 10:24:04;;;;;;;3.30;1.50;;;;;;;-128.00;-1.00;-1.00;100993;316;1004427;-33
2023/09/17 10:26:37;;;;;;;1.20;1.00;;;;;;;-128.00;-1.00;-1.00;101021;320;1003113;-37
2023/09/17 10:29:03;;;;;;;3.20;2.10;;;;;;;-128.00;-1.00;-1.00;101084;316;1002974;-35
2023/09/17 10:31:30;;;;;;;2.30;1.40;;;;;;;-128.00;-1.00;-1.00;101048;316;1003385;-31
2023/09/17 10:33:55;;;;;;;5.70;1.40;;;;;;;-128.00;-1.00;-1.00;101047;316;1003268;-32
2023/09/17 10:36:22;;;;;;;1.30;0.70;;;;;;;-128.00;-1.00;-1.00;101074;320;1003745;-31
2023/09/17 10:38:48;;;;;;;2.70;1.00;;;;;;;-128.00;-1.00;-1.00;101002;317;1003174;-35
2023/09/17 10:41:13;;;;;;;1.70;1.20;;;;;;;-128.00;-1.00;-1.00;101047;316;1003675;-34
2023/09/17 10:43:39;;;;;;;1.70;1.50;;;;;;;-128.00;-1.00;-1.00;101080;316;1004002;-35
2023/09/17 10:46:08;;;;;;;2.30;1.00;;;;;;;-128.00;-1.00;-1.00;101003;316;1002721;-38
2023/09/17 10:48:34;;;;;;;1.10;1.00;;;;;;;-128.00;-1.00;-1.00;100992;316;1003165;-31
2023/09/17 10:51:00;;;;;;;2.10;1.80;;;;;;;-128.00;-1.00;-1.00;100998;316;1002865;-37
2023/09/17 10:53:26;;;;;;;2.20;1.60;;;;;;;-128.00;-1.00;-1.00;101084;316;1002658;-37
2023/09/17 10:56:08;;;;;;;9.80;1.00;;;;;;;-128.00;-1.00;-1.00;101056;316;1003879;-31
2023/09/17 10:58:43;;;;;;;1.50;1.00;;;;;;;-128.00;-1.00;-1.00;101046;315;1005240;-35
2023/09/17 11:01:10;;;;;;;1.30;1.30;;;;;;;-128.00;-1.00;-1.00;101034;316;1003374;-35
2023/09/17 11:03:38;;;;;;;1.10;0.90;;;;;;;-128.00;-1.00;-1.00;101063;315;1004521;-32
2023/09/17 11:06:05;;;;;;;0.90;0.90;;;;;;;-128.00;-1.00;-1.00;101040;316;1004946;-37
2023/09/17 11:08:32;;;;;;;1.80;1.10;;;;;;;-128.00;-1.00;-1.00;100880;317;1002857;-35
2023/09/17 11:10:57;;;;;;;1.60;1.30;;;;;;;-128.00;-1.00;-1.00;101018;316;1004179;-38
2023/09/17 11:13:23;;;;;;;2.10;1.80;;;;;;;-128.00;-1.00;-1.00;101036;315;1003151;-31
2023/09/17 11:15:51;;;;;;;1.60;1.40;;;;;;;-128.00;-1.00;-1.00;100839;316;1003220;-35
2023/09/17 11:18:17;;;;;;;1.90;1.60;;;;;;;-128.00;-1.00;-1.00;101082;315;1002841;-37
2023/09/17 11:21:06;;;;;;;0.60;0.60;;;;;;;-128.00;-1.00;-1.00;100659;319;1003723;-32
2023/09/17 11:23:37;;;;;;;1.70;1.40;;;;;;;-128.00;-1.00;-1.00;101045;315;1004911;-31
2023/09/17 11:26:02;;;;;;;1.80;1.50;;;;;;;-128.00;-1.00;-1.00;101037;316;1002710;-33
2023/09/17 11:28:35;;;;;;;1.40;1.30;;;;;;;-128.00;-1.00;-1.00;100952;317;1003278;-35
2023/09/17 11:31:04;;;;;;;1.70;1.40;;;;;;;-128.00;-1.00;-1.00;101064;315;1002827;-31
2023/09/17 11:33:32;;;;;;;3.90;1.70;;;;;;;-128.00;-1.00;-1.00;101058;315;1003921;-35
2023/09/17 11:35:59;;;;;;;1.60;1.50;;;;;;;-128.00;-1.00;-1.00;101065;317;1003212;-35
2023/09/17 11:38:26;;;;;;;8.40;1.90;;;;;;;-128.00;-1.00;-1.00;101071;316;1003904;-35
2023/09/17 11:41:04;;;;;;;2.10;1.60;;;;;;;-128.00;-1.00;-1.00;101019;315;1004101;-32
2023/09/17 11:43:31;;;;;;;1.70;1.60;;;;;;;-128.00;-1.00;-1.00;101064;315;1002817;-32
2023/09/17 11:45:58;;;;;;;5.30;1.60;;;;;;;-128.00;-1.00;-1.00;101077;316;1004639;-35
2023/09/17 11:48:26;;;;;;;1.30;1.10;;;;;;;-128.00;-1.00;-1.00;101038;315;1003835;-35
2023/09/17 11:50:52;;;;;;;1.20;1.10;;;;;;;-128.00;-1.00;-1.00;101055;315;1003711;-31
2023/09/17 11:53:19;;;;;;;2.70;1.80;;;;;;;-128.00;-1.00;-1.00;101098;315;1003138;-31
2023/09/17 11:55:49;;;;;;;1.40;1.30;;;;;;;-128.00;-1.00;-1.00;101012;316;1002985;-31
2023/09/17 11:58:19;;;;;;;1.40;1.20;;;;;;;-128.00;-1.00;-1.00;101068;315;1003641;-35
2023/09/17 12:00:45;;;;;;;6.80;1.20;;;;;;;-128.00;-1.00;-1.00;101056;320;1003289;-31
2023/09/17 12:03:14;;;;;;;2.20;2.00;;;;;;;-128.00;-1.00;-1.00;101004;316;1004284;-35
2023/09/17 12:05:39;;;;;;;1.40;1.20;;;;;;;-128.00;-1.00;-1.00;101005;315;1003930;-34
2023/09/17 12:08:05;;;;;;;3.00;2.00;;;;;;;-128.00;-1.00;-1.00;101049;315;1003736;-31